sensor_id;sensor_type;location;lat;lon;timestamp;pressure;altitude;pressure_sealevel;temperature;humidity
79645;BME280;69117;47.148;18.954;2023-05-28T00:01:36;100803.75;;;13.40;84.54
79645;BME280;69117;47.148;18.954;2023-05-28T00:04:38;100799.97;;;13.42;83.61
79645;BME280;69117;47.148;18.954;2023-05-28T00:07:40;100787.53;;;13.43;82.88
79645;BME280;69117;47.148;18.954;2023-05-28T00:10:43;100794.25;;;13.37;82.68
79645;BME280;69117;47.148;18.954;2023-05-28T00:13:45;100781.56;;;13.41;81.38
79645;BME280;69117;47.148;18.954;2023-05-28T00:16:47;100780.16;;;13.37;80.63
79645;BME280;69117;47.148;18.954;2023-05-28T00:19:49;100793.59;;;13.35;79.90
79645;BME280;69117;47.148;18.954;2023-05-28T00:22:51;100785.78;;;13.51;79.09
79645;BME280;69117;47.148;18.954;2023-05-28T00:25:53;100780.94;;;13.47;77.80
79645;BME280;69117;47.148;18.954;2023-05-28T00:28:55;100769.78;;;13.43;78.11
79645;BME280;69117;47.148;18.954;2023-05-28T00:31:57;100782.16;;;13.52;77.64
79645;BME280;69117;47.148;18.954;2023-05-28T00:34:59;100753.25;;;13.49;76.85
79645;BME280;69117;47.148;18.954;2023-05-28T00:38:00;100776.44;;;13.65;77.52
79645;BME280;69117;47.148;18.954;2023-05-28T00:41:02;100768.31;;;13.67;76.91
79645;BME280;69117;47.148;18.954;2023-05-28T00:44:04;100771.97;;;13.66;78.88
79645;BME280;69117;47.148;18.954;2023-05-28T00:47:07;100769.09;;;13.59;75.26
79645;BME280;69117;47.148;18.954;2023-05-28T00:50:09;100756.44;;;13.53;77.63
79645;BME280;69117;47.148;18.954;2023-05-28T00:53:12;100762.97;;;13.41;76.28
79645;BME280;69117;47.148;18.954;2023-05-28T00:56:15;100754.41;;;13.47;77.23
79645;BME280;69117;47.148;18.954;2023-05-28T00:59:17;100750.53;;;13.41;77.73
79645;BME280;69117;47.148;18.954;2023-05-28T01:02:18;100749.41;;;13.44;78.76
79645;BME280;69117;47.148;18.954;2023-05-28T01:05:20;100741.28;;;13.27;78.91
79645;BME280;69117;47.148;18.954;2023-05-28T01:08:23;100744.97;;;13.17;79.82
79645;BME280;69117;47.148;18.954;2023-05-28T01:11:24;100749.97;;;13.20;79.65
79645;BME280;69117;47.148;18.954;2023-05-28T01:14:28;100752.31;;;13.05;79.84
79645;BME280;69117;47.148;18.954;2023-05-28T01:17:31;100737.63;;;12.93;79.82
79645;BME280;69117;47.148;18.954;2023-05-28T01:20:33;100737.47;;;13.12;79.33
79645;BME280;69117;47.148;18.954;2023-05-28T01:23:53;100729.97;;;12.90;78.73
79645;BME280;69117;47.148;18.954;2023-05-28T01:26:55;100738.22;;;12.87;79.55
79645;BME280;69117;47.148;18.954;2023-05-28T01:29:58;100736.81;;;12.82;80.56
79645;BME280;69117;47.148;18.954;2023-05-28T01:32:59;100744.47;;;12.86;79.78
79645;BME280;69117;47.148;18.954;2023-05-28T01:36:05;100723.06;;;12.97;78.99
79645;BME280;69117;47.148;18.954;2023-05-28T01:39:09;100745.03;;;13.07;80.09
79645;BME280;69117;47.148;18.954;2023-05-28T01:42:13;100735.56;;;12.87;79.10
79645;BME280;69117;47.148;18.954;2023-05-28T01:45:16;100731.22;;;12.86;79.14
79645;BME280;69117;47.148;18.954;2023-05-28T01:48:18;100729.13;;;12.89;78.99
79645;BME280;69117;47.148;18.954;2023-05-28T01:51:21;100727.22;;;12.99;78.12
79645;BME280;69117;47.148;18.954;2023-05-28T01:54:24;100713.59;;;12.94;78.65
79645;BME280;69117;47.148;18.954;2023-05-28T01:57:26;100729.56;;;12.84;78.86
79645;BME280;69117;47.148;18.954;2023-05-28T02:00:27;100723.41;;;12.66;77.96
79645;BME280;69117;47.148;18.954;2023-05-28T02:03:29;100728.13;;;12.72;78.80
79645;BME280;69117;47.148;18.954;2023-05-28T02:06:32;100732.06;;;12.68;78.66
79645;BME280;69117;47.148;18.954;2023-05-28T02:09:34;100727.53;;;12.51;78.49
79645;BME280;69117;47.148;18.954;2023-05-28T02:12:36;100721.66;;;12.57;77.85
79645;BME280;69117;47.148;18.954;2023-05-28T02:15:38;100716.94;;;12.51;77.25
79645;BME280;69117;47.148;18.954;2023-05-28T02:18:39;100734.00;;;12.66;76.46
79645;BME280;69117;47.148;18.954;2023-05-28T02:21:41;100731.25;;;12.58;76.13
79645;BME280;69117;47.148;18.954;2023-05-28T02:24:43;100724.72;;;12.52;76.82
79645;BME280;69117;47.148;18.954;2023-05-28T02:27:47;100730.28;;;12.59;76.09
79645;BME280;69117;47.148;18.954;2023-05-28T02:30:48;100729.66;;;12.47;75.93
79645;BME280;69117;47.148;18.954;2023-05-28T02:33:50;100725.53;;;12.35;76.16
79645;BME280;69117;47.148;18.954;2023-05-28T02:36:52;100717.72;;;12.33;75.90
79645;BME280;69117;47.148;18.954;2023-05-28T02:39:54;100719.97;;;12.28;77.43
79645;BME280;69117;47.148;18.954;2023-05-28T02:42:55;100726.38;;;12.35;78.95
79645;BME280;69117;47.148;18.954;2023-05-28T02:45:57;100729.19;;;12.24;78.88
79645;BME280;69117;47.148;18.954;2023-05-28T02:48:59;100729.34;;;12.23;78.02
79645;BME280;69117;47.148;18.954;2023-05-28T02:52:00;100731.94;;;12.32;78.26
79645;BME280;69117;47.148;18.954;2023-05-28T02:55:02;100732.66;;;12.34;77.11
79645;BME280;69117;47.148;18.954;2023-05-28T02:58:04;100729.06;;;12.16;78.39
79645;BME280;69117;47.148;18.954;2023-05-28T03:01:07;100723.81;;;12.06;79.18
79645;BME280;69117;47.148;18.954;2023-05-28T03:04:09;100724.56;;;11.99;80.63
79645;BME280;69117;47.148;18.954;2023-05-28T03:07:10;100727.50;;;11.96;78.69
79645;BME280;69117;47.148;18.954;2023-05-28T03:10:12;100714.84;;;11.89;78.28
79645;BME280;69117;47.148;18.954;2023-05-28T03:13:14;100716.19;;;11.94;79.86
79645;BME280;69117;47.148;18.954;2023-05-28T03:16:15;100720.91;;;12.00;78.63
79645;BME280;69117;47.148;18.954;2023-05-28T03:19:17;100725.09;;;12.02;80.17
79645;BME280;69117;47.148;18.954;2023-05-28T03:22:20;100721.63;;;12.02;77.23
79645;BME280;69117;47.148;18.954;2023-05-28T03:25:22;100725.50;;;12.07;77.43
79645;BME280;69117;47.148;18.954;2023-05-28T03:28:24;100724.94;;;12.13;77.56
79645;BME280;69117;47.148;18.954;2023-05-28T03:31:29;100724.94;;;12.13;78.19
79645;BME280;69117;47.148;18.954;2023-05-28T03:34:33;100728.06;;;12.27;80.17
79645;BME280;69117;47.148;18.954;2023-05-28T03:37:37;100729.31;;;12.32;79.84
79645;BME280;69117;47.148;18.954;2023-05-28T03:40:38;100716.88;;;12.33;78.90
79645;BME280;69117;47.148;18.954;2023-05-28T03:43:41;100727.94;;;12.56;77.46
79645;BME280;69117;47.148;18.954;2023-05-28T03:46:43;100724.69;;;12.62;78.53
79645;BME280;69117;47.148;18.954;2023-05-28T03:49:45;100736.34;;;12.69;76.41
79645;BME280;69117;47.148;18.954;2023-05-28T03:52:46;100725.69;;;12.79;77.00
79645;BME280;69117;47.148;18.954;2023-05-28T03:55:48;100728.28;;;12.89;nan
79645;BME280;69117;47.148;18.954;2023-05-28T03:58:53;100711.63;;;12.96;75.06
79645;BME280;69117;47.148;18.954;2023-05-28T04:01:54;100716.41;;;13.11;75.35
79645;BME280;69117;47.148;18.954;2023-05-28T04:04:56;100723.41;;;13.29;75.22
79645;BME280;69117;47.148;18.954;2023-05-28T04:07:58;100731.78;;;13.43;75.57
79645;BME280;69117;47.148;18.954;2023-05-28T04:11:00;100734.38;;;13.52;74.14
79645;BME280;69117;47.148;18.954;2023-05-28T04:14:02;100723.66;;;13.62;72.03
79645;BME280;69117;47.148;18.954;2023-05-28T04:17:04;100724.91;;;13.76;72.17
79645;BME280;69117;47.148;18.954;2023-05-28T04:20:06;100719.59;;;13.76;74.18
79645;BME280;69117;47.148;18.954;2023-05-28T04:23:08;100729.19;;;13.95;73.32
79645;BME280;69117;47.148;18.954;2023-05-28T04:26:10;100734.06;;;14.08;73.78
79645;BME280;69117;47.148;18.954;2023-05-28T04:29:12;100732.94;;;14.18;73.59
79645;BME280;69117;47.148;18.954;2023-05-28T04:32:17;100721.03;;;14.31;72.60
79645;BME280;69117;47.148;18.954;2023-05-28T04:35:19;100721.59;;;14.42;72.31
79645;BME280;69117;47.148;18.954;2023-05-28T04:38:23;100718.69;;;14.54;72.88
79645;BME280;69117;47.148;18.954;2023-05-28T04:41:24;100735.22;;;14.74;72.26
79645;BME280;69117;47.148;18.954;2023-05-28T04:44:26;100734.88;;;14.85;70.60
79645;BME280;69117;47.148;18.954;2023-05-28T04:47:28;100721.97;;;14.98;71.04
79645;BME280;69117;47.148;18.954;2023-05-28T04:50:30;100735.59;;;15.11;70.63
79645;BME280;69117;47.148;18.954;2023-05-28T04:53:32;100728.28;;;15.22;69.84
79645;BME280;69117;47.148;18.954;2023-05-28T04:56:35;100736.44;;;15.37;69.81
79645;BME280;69117;47.148;18.954;2023-05-28T04:59:37;100731.63;;;15.48;70.40
79645;BME280;69117;47.148;18.954;2023-05-28T05:02:39;100736.97;;;15.65;70.60
79645;BME280;69117;47.148;18.954;2023-05-28T05:05:43;100743.13;;;15.82;69.02
79645;BME280;69117;47.148;18.954;2023-05-28T05:08:44;100741.25;;;15.98;69.10
79645;BME280;69117;47.148;18.954;2023-05-28T05:11:49;100730.53;;;16.15;69.33
79645;BME280;69117;47.148;18.954;2023-05-28T05:14:51;100739.97;;;16.34;68.34
79645;BME280;69117;47.148;18.954;2023-05-28T05:17:52;100741.41;;;16.53;68.49
79645;BME280;69117;47.148;18.954;2023-05-28T05:20:54;100753.72;;;16.62;67.52
79645;BME280;69117;47.148;18.954;2023-05-28T05:23:57;100744.53;;;16.64;66.19
79645;BME280;69117;47.148;18.954;2023-05-28T05:26:58;100745.78;;;16.85;66.57
79645;BME280;69117;47.148;18.954;2023-05-28T05:30:00;100733.63;;;17.05;66.71
79645;BME280;69117;47.148;18.954;2023-05-28T05:33:02;100736.44;;;17.35;66.31
79645;BME280;69117;47.148;18.954;2023-05-28T05:36:04;100741.88;;;17.42;65.09
79645;BME280;69117;47.148;18.954;2023-05-28T05:39:06;100742.94;;;17.55;64.91
79645;BME280;69117;47.148;18.954;2023-05-28T05:42:08;100738.97;;;17.51;63.92
79645;BME280;69117;47.148;18.954;2023-05-28T05:45:09;100736.94;;;17.53;63.30
79645;BME280;69117;47.148;18.954;2023-05-28T05:48:11;100727.41;;;17.74;63.55
79645;BME280;69117;47.148;18.954;2023-05-28T05:51:13;100736.91;;;17.76;61.78
79645;BME280;69117;47.148;18.954;2023-05-28T05:54:19;100733.44;;;17.91;61.59
79645;BME280;69117;47.148;18.954;2023-05-28T05:57:21;100730.03;;;18.26;61.22
79645;BME280;69117;47.148;18.954;2023-05-28T06:00:23;100738.50;;;18.30;60.23
79645;BME280;69117;47.148;18.954;2023-05-28T06:03:25;100725.97;;;18.30;60.68
79645;BME280;69117;47.148;18.954;2023-05-28T06:06:29;100727.78;;;18.60;61.00
79645;BME280;69117;47.148;18.954;2023-05-28T06:09:31;100736.63;;;18.60;58.61
79645;BME280;69117;47.148;18.954;2023-05-28T06:12:33;100742.28;;;18.80;60.06
79645;BME280;69117;47.148;18.954;2023-05-28T06:15:34;100741.56;;;18.93;60.48
79645;BME280;69117;47.148;18.954;2023-05-28T06:18:39;100745.94;;;19.15;58.69
79645;BME280;69117;47.148;18.954;2023-05-28T06:21:41;100750.66;;;19.35;58.56
79645;BME280;69117;47.148;18.954;2023-05-28T06:24:42;100755.13;;;19.28;56.15
79645;BME280;69117;47.148;18.954;2023-05-28T06:27:45;100758.81;;;19.48;57.01
79645;BME280;69117;47.148;18.954;2023-05-28T06:30:47;100744.50;;;19.62;56.00
79645;BME280;69117;47.148;18.954;2023-05-28T06:33:49;100747.69;;;19.73;55.25
79645;BME280;69117;47.148;18.954;2023-05-28T06:36:50;100739.03;;;19.49;55.95
79645;BME280;69117;47.148;18.954;2023-05-28T06:39:52;100736.78;;;19.53;55.75
79645;BME280;69117;47.148;18.954;2023-05-28T06:42:54;100743.25;;;19.86;55.09
79645;BME280;69117;47.148;18.954;2023-05-28T06:45:55;100749.19;;;20.10;55.49
79645;BME280;69117;47.148;18.954;2023-05-28T06:48:57;100744.53;;;20.25;55.52
79645;BME280;69117;47.148;18.954;2023-05-28T06:51:59;100756.53;;;20.29;54.20
79645;BME280;69117;47.148;18.954;2023-05-28T06:55:00;100752.84;;;20.30;54.29
79645;BME280;69117;47.148;18.954;2023-05-28T06:58:02;100748.31;;;20.38;55.17
79645;BME280;69117;47.148;18.954;2023-05-28T07:01:04;100747.59;;;20.16;54.84
79645;BME280;69117;47.148;18.954;2023-05-28T07:04:06;100752.22;;;20.70;52.32
79645;BME280;69117;47.148;18.954;2023-05-28T07:07:08;100743.59;;;20.40;53.08
79645;BME280;69117;47.148;18.954;2023-05-28T07:10:10;100745.47;;;20.94;52.94
79645;BME280;69117;47.148;18.954;2023-05-28T07:13:15;100743.63;;;21.08;52.08
79645;BME280;69117;47.148;18.954;2023-05-28T07:16:16;100737.66;;;21.19;51.74
79645;BME280;69117;47.148;18.954;2023-05-28T07:19:18;100735.59;;;21.34;50.48
79645;BME280;69117;47.148;18.954;2023-05-28T07:22:20;100737.47;;;21.34;49.00
79645;BME280;69117;47.148;18.954;2023-05-28T07:25:22;100738.97;;;21.36;49.75
79645;BME280;69117;47.148;18.954;2023-05-28T07:28:23;100737.72;;;21.79;49.04
79645;BME280;69117;47.148;18.954;2023-05-28T07:31:25;100731.69;;;21.57;47.85
79645;BME280;69117;47.148;18.954;2023-05-28T07:34:27;100733.75;;;21.35;49.05
79645;BME280;69117;47.148;18.954;2023-05-28T07:37:28;100717.44;;;21.43;48.72
79645;BME280;69117;47.148;18.954;2023-05-28T07:40:30;100729.66;;;21.52;47.44
79645;BME280;69117;47.148;18.954;2023-05-28T07:43:32;100720.53;;;21.73;48.25
79645;BME280;69117;47.148;18.954;2023-05-28T07:46:34;100720.22;;;22.14;47.78
79645;BME280;69117;47.148;18.954;2023-05-28T07:49:36;100722.22;;;22.52;47.60
79645;BME280;69117;47.148;18.954;2023-05-28T07:52:38;100714.75;;;21.69;47.74
79645;BME280;69117;47.148;18.954;2023-05-28T07:55:41;100713.06;;;21.22;48.60
79645;BME280;69117;47.148;18.954;2023-05-28T07:58:44;100717.72;;;22.33;49.86
79645;BME280;69117;47.148;18.954;2023-05-28T08:01:46;100717.94;;;22.76;45.62
79645;BME280;69117;47.148;18.954;2023-05-28T08:04:48;100716.94;;;22.71;48.31
79645;BME280;69117;47.148;18.954;2023-05-28T08:07:50;100708.06;;;21.99;47.56
79645;BME280;69117;47.148;18.954;2023-05-28T08:10:52;100714.09;;;21.94;47.03
79645;BME280;69117;47.148;18.954;2023-05-28T08:13:54;100711.47;;;22.84;47.84
79645;BME280;69117;47.148;18.954;2023-05-28T08:16:55;100715.84;;;23.17;46.25
79645;BME280;69117;47.148;18.954;2023-05-28T08:19:57;100722.84;;;23.24;47.76
79645;BME280;69117;47.148;18.954;2023-05-28T08:23:04;100705.25;;;23.72;46.34
79645;BME280;69117;47.148;18.954;2023-05-28T08:26:06;100718.69;;;23.79;45.17
79645;BME280;69117;47.148;18.954;2023-05-28T08:29:08;100703.88;;;24.06;44.51
79645;BME280;69117;47.148;18.954;2023-05-28T08:32:10;100704.00;;;24.11;45.26
79645;BME280;69117;47.148;18.954;2023-05-28T08:35:12;100713.53;;;24.32;40.69
79645;BME280;69117;47.148;18.954;2023-05-28T08:38:14;100705.81;;;25.15;41.54
79645;BME280;69117;47.148;18.954;2023-05-28T08:41:16;100704.56;;;24.68;41.20
79645;BME280;69117;47.148;18.954;2023-05-28T08:44:18;100710.47;;;24.77;43.35
79645;BME280;69117;47.148;18.954;2023-05-28T08:47:21;100706.94;;;24.47;40.83
79645;BME280;69117;47.148;18.954;2023-05-28T08:50:23;100709.00;;;24.63;42.18
79645;BME280;69117;47.148;18.954;2023-05-28T08:53:26;100710.56;;;25.01;40.96
79645;BME280;69117;47.148;18.954;2023-05-28T08:56:31;100695.72;;;25.33;39.98
79645;BME280;69117;47.148;18.954;2023-05-28T08:59:33;100692.53;;;25.25;41.58
79645;BME280;69117;47.148;18.954;2023-05-28T09:02:35;100689.28;;;25.58;40.63
79645;BME280;69117;47.148;18.954;2023-05-28T09:05:37;100692.16;;;26.27;37.57
79645;BME280;69117;47.148;18.954;2023-05-28T09:08:39;100679.00;;;26.07;39.06
79645;BME280;69117;47.148;18.954;2023-05-28T09:11:41;100679.56;;;26.21;39.29
79645;BME280;69117;47.148;18.954;2023-05-28T09:14:43;100673.94;;;25.99;40.28
79645;BME280;69117;47.148;18.954;2023-05-28T09:17:45;100675.34;;;26.54;38.53
79645;BME280;69117;47.148;18.954;2023-05-28T09:20:50;100676.59;;;26.22;37.04
79645;BME280;69117;47.148;18.954;2023-05-28T09:23:52;100674.78;;;25.76;39.74
79645;BME280;69117;47.148;18.954;2023-05-28T09:26:55;100675.84;;;25.98;36.34
79645;BME280;69117;47.148;18.954;2023-05-28T09:30:02;100676.44;;;25.53;40.26
79645;BME280;69117;47.148;18.954;2023-05-28T09:33:05;100668.78;;;25.74;39.96
79645;BME280;69117;47.148;18.954;2023-05-28T09:36:07;100668.13;;;26.19;39.08
79645;BME280;69117;47.148;18.954;2023-05-28T09:39:09;100665.34;;;26.42;39.83
79645;BME280;69117;47.148;18.954;2023-05-28T09:42:11;100669.38;;;26.40;39.93
79645;BME280;69117;47.148;18.954;2023-05-28T09:45:22;100665.91;;;26.44;38.33
79645;BME280;69117;47.148;18.954;2023-05-28T09:48:24;100658.97;;;26.08;38.13
79645;BME280;69117;47.148;18.954;2023-05-28T09:51:30;100658.44;;;26.23;38.55
79645;BME280;69117;47.148;18.954;2023-05-28T09:54:34;100662.44;;;27.06;38.71
79645;BME280;69117;47.148;18.954;2023-05-28T09:57:40;100662.59;;;27.67;37.66
79645;BME280;69117;47.148;18.954;2023-05-28T10:00:50;100656.06;;;27.85;35.73
79645;BME280;69117;47.148;18.954;2023-05-28T10:04:01;100658.81;;;27.01;37.04
79645;BME280;69117;47.148;18.954;2023-05-28T10:07:09;100652.34;;;26.56;37.27
79645;BME280;69117;47.148;18.954;2023-05-28T10:10:14;100651.84;;;27.05;37.18
79645;BME280;69117;47.148;18.954;2023-05-28T10:13:16;100642.47;;;26.79;34.96
79645;BME280;69117;47.148;18.954;2023-05-28T10:16:19;100632.41;;;25.93;37.49
79645;BME280;69117;47.148;18.954;2023-05-28T10:19:22;100629.88;;;26.72;37.44
79645;BME280;69117;47.148;18.954;2023-05-28T10:22:27;100624.59;;;27.50;36.77
79645;BME280;69117;47.148;18.954;2023-05-28T10:25:29;100633.72;;;27.61;34.75
79645;BME280;69117;47.148;18.954;2023-05-28T10:28:31;100642.41;;;26.90;34.82
79645;BME280;69117;47.148;18.954;2023-05-28T10:31:33;100629.69;;;26.62;36.68
79645;BME280;69117;47.148;18.954;2023-05-28T10:34:37;100632.88;;;27.22;35.47
79645;BME280;69117;47.148;18.954;2023-05-28T10:37:39;100637.19;;;26.43;34.47
79645;BME280;69117;47.148;18.954;2023-05-28T10:40:41;100624.88;;;27.32;34.26
79645;BME280;69117;47.148;18.954;2023-05-28T10:43:44;100625.88;;;27.26;35.21
79645;BME280;69117;47.148;18.954;2023-05-28T10:46:55;100629.22;;;28.92;33.77
79645;BME280;69117;47.148;18.954;2023-05-28T10:50:02;100627.25;;;28.82;31.54
79645;BME280;69117;47.148;18.954;2023-05-28T10:53:18;100618.25;;;29.09;33.34
79645;BME280;69117;47.148;18.954;2023-05-28T10:56:20;100618.56;;;29.60;30.90
79645;BME280;69117;47.148;18.954;2023-05-28T11:02:54;100608.13;;;29.41;32.04
79645;BME280;69117;47.148;18.954;2023-05-28T11:05:56;100604.78;;;28.38;33.43
79645;BME280;69117;47.148;18.954;2023-05-28T11:08:58;100605.16;;;29.06;32.43
79645;BME280;69117;47.148;18.954;2023-05-28T11:12:01;100596.38;;;29.36;32.27
79645;BME280;69117;47.148;18.954;2023-05-28T11:15:04;100587.84;;;29.64;29.80
79645;BME280;69117;47.148;18.954;2023-05-28T11:18:07;100582.88;;;29.14;33.59
79645;BME280;69117;47.148;18.954;2023-05-28T11:21:09;100584.25;;;30.27;33.37
79645;BME280;69117;47.148;18.954;2023-05-28T11:24:11;100581.53;;;31.24;29.98
79645;BME280;69117;47.148;18.954;2023-05-28T11:27:13;100577.16;;;30.26;31.34
79645;BME280;69117;47.148;18.954;2023-05-28T11:30:18;100569.50;;;30.23;28.41
79645;BME280;69117;47.148;18.954;2023-05-28T11:33:20;100567.31;;;29.04;33.50
79645;BME280;69117;47.148;18.954;2023-05-28T11:36:22;100563.50;;;30.26;31.78
79645;BME280;69117;47.148;18.954;2023-05-28T11:39:23;100559.97;;;29.52;32.77
79645;BME280;69117;47.148;18.954;2023-05-28T11:42:27;100563.78;;;29.51;31.44
79645;BME280;69117;47.148;18.954;2023-05-28T11:45:36;100559.41;;;29.50;30.94
79645;BME280;69117;47.148;18.954;2023-05-28T11:48:37;100559.78;;;29.16;33.08
79645;BME280;69117;47.148;18.954;2023-05-28T11:51:39;100553.47;;;30.42;32.76
79645;BME280;69117;47.148;18.954;2023-05-28T11:54:43;100531.03;;;31.21;30.63
79645;BME280;69117;47.148;18.954;2023-05-28T11:57:52;100542.75;;;31.27;29.06
79645;BME280;69117;47.148;18.954;2023-05-28T12:00:57;100536.63;;;31.66;29.79
79645;BME280;69117;47.148;18.954;2023-05-28T12:04:06;100528.66;;;31.69;29.07
79645;BME280;69117;47.148;18.954;2023-05-28T12:07:08;100536.94;;;32.09;27.92
79645;BME280;69117;47.148;18.954;2023-05-28T12:10:11;100535.03;;;31.55;29.43
79645;BME280;69117;47.148;18.954;2023-05-28T12:13:13;100537.41;;;32.21;26.39
79645;BME280;69117;47.148;18.954;2023-05-28T12:16:15;100534.81;;;31.25;28.56
79645;BME280;69117;47.148;18.954;2023-05-28T12:19:17;100536.56;;;30.86;29.21
79645;BME280;69117;47.148;18.954;2023-05-28T12:22:18;100528.25;;;31.47;28.81
79645;BME280;69117;47.148;18.954;2023-05-28T12:25:20;100530.22;;;31.91;28.67
79645;BME280;69117;47.148;18.954;2023-05-28T12:28:22;100528.88;;;30.98;29.64
79645;BME280;69117;47.148;18.954;2023-05-28T12:31:28;100520.72;;;30.62;27.60
79645;BME280;69117;47.148;18.954;2023-05-28T12:34:32;100518.94;;;31.43;28.21
79645;BME280;69117;47.148;18.954;2023-05-28T12:37:34;100522.47;;;32.08;27.33
79645;BME280;69117;47.148;18.954;2023-05-28T12:40:36;100515.44;;;32.31;26.20
79645;BME280;69117;47.148;18.954;2023-05-28T12:43:38;100521.19;;;31.85;27.46
79645;BME280;69117;47.148;18.954;2023-05-28T12:46:39;100524.75;;;31.16;28.20
79645;BME280;69117;47.148;18.954;2023-05-28T12:49:41;100518.81;;;30.93;27.64
79645;BME280;69117;47.148;18.954;2023-05-28T12:52:43;100515.16;;;31.88;28.04
79645;BME280;69117;47.148;18.954;2023-05-28T12:55:44;100517.44;;;32.21;25.44
79645;BME280;69117;47.148;18.954;2023-05-28T12:58:46;100513.34;;;30.88;27.73
79645;BME280;69117;47.148;18.954;2023-05-28T13:01:48;100507.56;;;31.10;28.24
79645;BME280;69117;47.148;18.954;2023-05-28T13:04:50;100511.97;;;32.60;27.42
79645;BME280;69117;47.148;18.954;2023-05-28T13:07:52;100509.53;;;30.58;26.98
79645;BME280;69117;47.148;18.954;2023-05-28T13:10:54;100500.13;;;31.41;26.28
79645;BME280;69117;47.148;18.954;2023-05-28T13:13:56;100499.47;;;32.49;25.72
79645;BME280;69117;47.148;18.954;2023-05-28T13:16:58;100485.44;;;32.55;25.82
79645;BME280;69117;47.148;18.954;2023-05-28T13:20:00;100489.22;;;33.61;23.96
79645;BME280;69117;47.148;18.954;2023-05-28T13:23:02;100501.44;;;32.04;26.67
79645;BME280;69117;47.148;18.954;2023-05-28T13:26:03;100493.84;;;31.25;26.96
79645;BME280;69117;47.148;18.954;2023-05-28T13:29:05;100497.97;;;32.91;26.35
79645;BME280;69117;47.148;18.954;2023-05-28T13:32:08;100488.81;;;31.63;27.33
79645;BME280;69117;47.148;18.954;2023-05-28T13:35:10;100485.34;;;31.47;26.38
79645;BME280;69117;47.148;18.954;2023-05-28T13:38:13;100478.88;;;31.18;25.38
79645;BME280;69117;47.148;18.954;2023-05-28T13:41:15;100481.25;;;31.94;25.70
79645;BME280;69117;47.148;18.954;2023-05-28T13:44:17;100479.00;;;32.07;24.70
79645;BME280;69117;47.148;18.954;2023-05-28T13:47:19;100475.97;;;32.43;26.97
79645;BME280;69117;47.148;18.954;2023-05-28T13:50:21;100469.78;;;32.90;23.69
79645;BME280;69117;47.148;18.954;2023-05-28T13:53:22;100468.09;;;31.57;25.96
79645;BME280;69117;47.148;18.954;2023-05-28T13:56:24;100469.72;;;30.11;27.26
79645;BME280;69117;47.148;18.954;2023-05-28T13:59:27;100468.78;;;31.18;26.69
79645;BME280;69117;47.148;18.954;2023-05-28T14:02:29;100470.66;;;32.22;24.82
79645;BME280;69117;47.148;18.954;2023-05-28T14:05:30;100460.88;;;33.27;25.26
79645;BME280;69117;47.148;18.954;2023-05-28T14:08:32;100457.31;;;32.15;25.32
79645;BME280;69117;47.148;18.954;2023-05-28T14:11:34;100451.75;;;31.91;26.84
79645;BME280;69117;47.148;18.954;2023-05-28T14:14:55;100456.25;;;31.72;27.30
79645;BME280;69117;47.148;18.954;2023-05-28T14:17:57;100451.13;;;32.68;24.77
79645;BME280;69117;47.148;18.954;2023-05-28T14:20:59;100455.13;;;32.17;26.63
79645;BME280;69117;47.148;18.954;2023-05-28T14:24:01;100447.88;;;31.98;25.29
79645;BME280;69117;47.148;18.954;2023-05-28T14:27:03;100441.44;;;31.83;24.92
79645;BME280;69117;47.148;18.954;2023-05-28T14:30:05;100447.31;;;30.86;25.43
79645;BME280;69117;47.148;18.954;2023-05-28T14:33:09;100437.31;;;31.31;25.18
79645;BME280;69117;47.148;18.954;2023-05-28T14:36:11;100436.94;;;30.88;25.92
79645;BME280;69117;47.148;18.954;2023-05-28T14:39:16;100439.84;;;32.16;24.92
79645;BME280;69117;47.148;18.954;2023-05-28T14:42:18;100424.97;;;33.48;24.58
79645;BME280;69117;47.148;18.954;2023-05-28T14:45:20;100421.84;;;33.17;24.20
79645;BME280;69117;47.148;18.954;2023-05-28T14:48:21;100419.06;;;32.98;25.04
79645;BME280;69117;47.148;18.954;2023-05-28T14:51:23;100424.66;;;31.95;24.18
79645;BME280;69117;47.148;18.954;2023-05-28T14:54:25;100416.50;;;30.75;27.13
79645;BME280;69117;47.148;18.954;2023-05-28T14:57:27;100426.66;;;31.89;26.74
79645;BME280;69117;47.148;18.954;2023-05-28T15:00:29;100417.44;;;32.09;23.90
79645;BME280;69117;47.148;18.954;2023-05-28T15:03:31;100408.34;;;33.01;23.06
79645;BME280;69117;47.148;18.954;2023-05-28T15:06:33;100407.25;;;33.40;22.64
79645;BME280;69117;47.148;18.954;2023-05-28T15:09:35;100407.91;;;32.89;23.13
79645;BME280;69117;47.148;18.954;2023-05-28T15:12:36;100401.91;;;32.63;24.42
79645;BME280;69117;47.148;18.954;2023-05-28T15:15:39;100406.94;;;31.48;24.58
79645;BME280;69117;47.148;18.954;2023-05-28T15:18:40;100408.66;;;31.29;25.10
79645;BME280;69117;47.148;18.954;2023-05-28T15:21:42;100399.03;;;32.97;23.70
79645;BME280;69117;47.148;18.954;2023-05-28T15:24:46;100407.13;;;32.01;23.44
79645;BME280;69117;47.148;18.954;2023-05-28T15:27:48;100393.00;;;32.52;23.95
79645;BME280;69117;47.148;18.954;2023-05-28T15:30:50;100395.50;;;32.44;24.00
79645;BME280;69117;47.148;18.954;2023-05-28T15:33:52;100388.66;;;32.99;23.28
79645;BME280;69117;47.148;18.954;2023-05-28T15:36:53;100393.09;;;32.42;24.07
79645;BME280;69117;47.148;18.954;2023-05-28T15:39:55;100390.13;;;32.38;24.47
79645;BME280;69117;47.148;18.954;2023-05-28T15:43:02;100391.06;;;30.95;24.14
79645;BME280;69117;47.148;18.954;2023-05-28T15:46:05;100388.63;;;31.88;23.66